sensor_id;sensor_type;location;lat;lon;timestamp;pressure;altitude;pressure_sealevel;temperature;humidity
30682;BME280;17439;48.092;11.842;2022-12-07T00:02:20;95340.25;;;5.34;70.00
30682;BME280;17439;48.092;11.842;2022-12-07T00:04:48;95337.84;;;5.32;69.85
30682;BME280;17439;48.092;11.842;2022-12-07T00:07:15;95337.84;;;5.32;69.97
30682;BME280;17439;48.092;11.842;2022-12-07T00:09:41;95344.84;;;5.33;69.99
30682;BME280;17439;48.092;11.842;2022-12-07T00:12:08;95342.44;;;5.32;69.94
30682;BME280;17439;48.092;11.842;2022-12-07T00:14:34;95334.38;;;5.32;70.22
30682;BME280;17439;48.092;11.842;2022-12-07T00:17:01;95339.75;;;5.32;70.04
30682;BME280;17439;48.092;11.842;2022-12-07T00:19:28;95333.53;;;5.31;70.31
30682;BME280;17439;48.092;11.842;2022-12-07T00:21:54;95332.75;;;5.31;70.29
30682;BME280;17439;48.092;11.842;2022-12-07T00:24:21;95327.38;;;5.31;70.23
30682;BME280;17439;48.092;11.842;2022-12-07T00:26:47;95328.97;;;5.32;70.42
30682;BME280;17439;48.092;11.842;2022-12-07T00:29:19;95330.84;;;5.31;69.50
30682;BME280;17439;48.092;11.842;2022-12-07T00:31:46;95326.00;;;5.33;70.30
30682;BME280;17439;48.092;11.842;2022-12-07T00:34:19;95324.41;;;5.32;69.51
30682;BME280;17439;48.092;11.842;2022-12-07T00:36:46;95326.53;;;5.35;70.30
30682;BME280;17439;48.092;11.842;2022-12-07T00:39:13;95327.31;;;5.36;70.32
30682;BME280;17439;48.092;11.842;2022-12-07T00:41:40;95325.47;;;5.36;70.50
30682;BME280;17439;48.092;11.842;2022-12-07T00:44:07;95329.72;;;5.37;70.41
30682;BME280;17439;48.092;11.842;2022-12-07T00:46:33;95329.72;;;5.37;70.35
30682;BME280;17439;48.092;11.842;2022-12-07T00:49:00;95333.25;;;5.38;70.42
30682;BME280;17439;48.092;11.842;2022-12-07T00:51:26;95327.59;;;5.39;70.53
30682;BME280;17439;48.092;11.842;2022-12-07T00:53:53;95328.66;;;5.38;70.52
30682;BME280;17439;48.092;11.842;2022-12-07T00:56:23;95331.88;;;5.40;70.37
30682;BME280;17439;48.092;11.842;2022-12-07T00:59:00;95332.13;;;5.39;69.28
30682;BME280;17439;48.092;11.842;2022-12-07T01:01:30;95335.66;;;5.39;70.03
30682;BME280;17439;48.092;11.842;2022-12-07T01:03:57;95327.31;;;5.41;70.43
30682;BME280;17439;48.092;11.842;2022-12-07T01:06:25;95325.41;;;5.41;70.53
30682;BME280;17439;48.092;11.842;2022-12-07T01:08:52;95326.47;;;5.40;70.34
30682;BME280;17439;48.092;11.842;2022-12-07T01:11:22;95324.63;;;5.41;70.10
30682;BME280;17439;48.092;11.842;2022-12-07T01:13:51;95328.91;;;5.42;70.26
30682;BME280;17439;48.092;11.842;2022-12-07T01:16:19;95326.22;;;5.42;70.20
30682;BME280;17439;48.092;11.842;2022-12-07T01:18:49;95330.78;;;5.41;70.04
30682;BME280;17439;48.092;11.842;2022-12-07T01:21:19;95331.88;;;5.40;69.78
30682;BME280;17439;48.092;11.842;2022-12-07T01:23:46;95332.97;;;5.39;70.17
30682;BME280;17439;48.092;11.842;2022-12-07T01:26:15;95332.97;;;5.39;69.74
30682;BME280;17439;48.092;11.842;2022-12-07T01:28:42;95330.28;;;5.39;70.32
30682;BME280;17439;48.092;11.842;2022-12-07T01:31:15;95327.03;;;5.37;69.58
30682;BME280;17439;48.092;11.842;2022-12-07T01:33:45;95322.78;;;5.36;69.86
30682;BME280;17439;48.092;11.842;2022-12-07T01:36:29;95326.53;;;5.35;68.83
30682;BME280;17439;48.092;11.842;2022-12-07T01:38:59;95330.00;;;5.36;69.92
30682;BME280;17439;48.092;11.842;2022-12-07T01:41:28;95324.91;;;5.34;69.84
30682;BME280;17439;48.092;11.842;2022-12-07T01:44:15;95329.50;;;5.34;68.49
30682;BME280;17439;48.092;11.842;2022-12-07T01:47:04;95321.72;;;5.32;69.26
30682;BME280;17439;48.092;11.842;2022-12-07T01:49:43;95326.56;;;5.30;68.36
30682;BME280;17439;48.092;11.842;2022-12-07T01:52:28;95323.06;;;5.30;68.93
30682;BME280;17439;48.092;11.842;2022-12-07T01:55:03;95321.47;;;5.29;69.18
30682;BME280;17439;48.092;11.842;2022-12-07T01:57:33;95316.38;;;5.27;69.08
30682;BME280;17439;48.092;11.842;2022-12-07T02:00:03;95316.38;;;5.27;69.75
30682;BME280;17439;48.092;11.842;2022-12-07T02:02:47;95312.63;;;5.23;68.69
30682;BME280;17439;48.092;11.842;2022-12-07T02:05:16;95324.50;;;5.22;69.77
30682;BME280;17439;48.092;11.842;2022-12-07T02:07:44;95316.44;;;5.22;70.05
30682;BME280;17439;48.092;11.842;2022-12-07T02:12:46;95319.13;;;5.22;69.68
30682;BME280;17439;48.092;11.842;2022-12-07T02:15:13;95321.81;;;5.22;70.03
30682;BME280;17439;48.092;11.842;2022-12-07T02:20:28;95313.19;;;5.20;68.96
30682;BME280;17439;48.092;11.842;2022-12-07T02:26:36;95312.41;;;5.19;68.34
30682;BME280;17439;48.092;11.842;2022-12-07T02:35:09;95304.84;;;5.21;69.05
30682;BME280;17439;48.092;11.842;2022-12-07T02:40:31;95315.88;;;5.25;70.29
30682;BME280;17439;48.092;11.842;2022-12-07T02:43:07;95312.34;;;5.24;69.29
30682;BME280;17439;48.092;11.842;2022-12-07T02:45:38;95308.31;;;5.27;69.95
30682;BME280;17439;48.092;11.842;2022-12-07T02:48:07;95292.19;;;5.27;70.03
30682;BME280;17439;48.092;11.842;2022-12-07T02:50:35;95308.03;;;5.29;70.00
30682;BME280;17439;48.092;11.842;2022-12-07T02:53:01;95303.72;;;5.27;70.21
30682;BME280;17439;48.092;11.842;2022-12-07T02:55:36;95307.75;;;5.30;69.72
30682;BME280;17439;48.092;11.842;2022-12-07T02:58:20;95308.03;;;5.29;69.14
30682;BME280;17439;48.092;11.842;2022-12-07T03:01:42;95301.56;;;5.30;69.85
30682;BME280;17439;48.092;11.842;2022-12-07T03:03:40;95307.47;;;5.32;70.16
30682;BME280;17439;48.092;11.842;2022-12-07T03:06:16;95308.56;;;5.31;69.17
30682;BME280;17439;48.092;11.842;2022-12-07T03:08:53;95309.34;;;5.31;69.36
30682;BME280;17439;48.092;11.842;2022-12-07T03:11:41;95303.47;;;5.29;68.75
30682;BME280;17439;48.092;11.842;2022-12-07T03:14:19;95300.22;;;5.32;69.33
30682;BME280;17439;48.092;11.842;2022-12-07T03:16:55;95300.22;;;5.32;69.33
30682;BME280;17439;48.092;11.842;2022-12-07T03:19:26;95306.09;;;5.34;70.05
30682;BME280;17439;48.092;11.842;2022-12-07T03:22:00;95302.63;;;5.34;69.26
30682;BME280;17439;48.092;11.842;2022-12-07T03:24:34;95299.66;;;5.35;69.29
30682;BME280;17439;48.092;11.842;2022-12-07T03:27:09;95295.88;;;5.36;69.34
30682;BME280;17439;48.092;11.842;2022-12-07T03:32:51;95296.69;;;5.37;68.94
30682;BME280;17439;48.092;11.842;2022-12-07T03:35:28;95295.88;;;5.36;69.13
30682;BME280;17439;48.092;11.842;2022-12-07T03:38:05;95297.47;;;5.37;70.01
30682;BME280;17439;48.092;11.842;2022-12-07T03:43:11;95306.88;;;5.40;70.32
30682;BME280;17439;48.092;11.842;2022-12-07T03:45:42;95298.00;;;5.39;70.39
30682;BME280;17439;48.092;11.842;2022-12-07T03:48:25;95280.28;;;5.38;68.95
30682;BME280;17439;48.092;11.842;2022-12-07T03:51:03;95289.94;;;5.39;69.54
30682;BME280;17439;48.092;11.842;2022-12-07T03:53:50;95291.53;;;5.40;69.02
30682;BME280;17439;48.092;11.842;2022-12-07T03:56:20;95289.38;;;5.42;70.55
30682;BME280;17439;48.092;11.842;2022-12-07T03:58:46;95292.09;;;5.37;69.24
30682;BME280;17439;48.092;11.842;2022-12-07T04:01:13;95283.41;;;5.45;70.54
30682;BME280;17439;48.092;11.842;2022-12-07T04:03:40;95284.25;;;5.46;70.37
30682;BME280;17439;48.092;11.842;2022-12-07T04:06:06;95280.44;;;5.47;70.37
30682;BME280;17439;48.092;11.842;2022-12-07T04:08:33;95281.28;;;5.48;70.32
30682;BME280;17439;48.092;11.842;2022-12-07T04:10:59;95274.78;;;5.49;70.38
30682;BME280;17439;48.092;11.842;2022-12-07T04:13:26;95275.63;;;5.49;70.19
30682;BME280;17439;48.092;11.842;2022-12-07T04:15:53;95281.00;;;5.49;70.20
30682;BME280;17439;48.092;11.842;2022-12-07T04:18:20;95281.00;;;5.49;70.41
30682;BME280;17439;48.092;11.842;2022-12-07T04:20:46;95278.59;;;5.48;70.38
30682;BME280;17439;48.092;11.842;2022-12-07T04:23:13;95275.91;;;5.48;70.49
30682;BME280;17439;48.092;11.842;2022-12-07T04:25:40;95280.16;;;5.49;70.37
30682;BME280;17439;48.092;11.842;2022-12-07T04:28:07;95274.00;;;5.48;70.56
30682;BME280;17439;48.092;11.842;2022-12-07T04:30:33;95278.31;;;5.49;70.52
30682;BME280;17439;48.092;11.842;2022-12-07T04:33:00;95279.88;;;5.50;70.27
30682;BME280;17439;48.092;11.842;2022-12-07T04:35:26;95274.50;;;5.50;70.32
30682;BME280;17439;48.092;11.842;2022-12-07T04:37:53;95284.47;;;5.50;70.35
30682;BME280;17439;48.092;11.842;2022-12-07T04:40:19;95280.16;;;5.49;70.26
30682;BME280;17439;48.092;11.842;2022-12-07T04:42:46;95281.28;;;5.48;70.23
30682;BME280;17439;48.092;11.842;2022-12-07T04:45:12;95283.97;;;5.48;70.15
30682;BME280;17439;48.092;11.842;2022-12-07T04:47:39;95285.81;;;5.47;70.48
30682;BME280;17439;48.092;11.842;2022-12-07T04:50:06;95278.59;;;5.48;70.70
30682;BME280;17439;48.092;11.842;2022-12-07T04:52:33;95275.34;;;5.45;70.73
30682;BME280;17439;48.092;11.842;2022-12-07T04:54:59;95274.28;;;5.47;70.52
30682;BME280;17439;48.092;11.842;2022-12-07T04:57:26;95274.28;;;5.47;70.59
30682;BME280;17439;48.092;11.842;2022-12-07T04:59:53;95274.28;;;5.47;70.74
30682;BME280;17439;48.092;11.842;2022-12-07T05:02:19;95274.28;;;5.47;70.60
30682;BME280;17439;48.092;11.842;2022-12-07T05:04:46;95275.91;;;5.48;70.68
30682;BME280;17439;48.092;11.842;2022-12-07T05:07:12;95275.91;;;5.48;70.60
30682;BME280;17439;48.092;11.842;2022-12-07T05:09:39;95283.97;;;5.48;70.77
30682;BME280;17439;48.092;11.842;2022-12-07T05:12:06;95278.59;;;5.48;70.50
30682;BME280;17439;48.092;11.842;2022-12-07T05:14:32;95275.06;;;5.47;70.52
30682;BME280;17439;48.092;11.842;2022-12-07T05:16:59;95275.91;;;5.48;70.71
30682;BME280;17439;48.092;11.842;2022-12-07T05:19:25;95277.47;;;5.49;70.50
30682;BME280;17439;48.092;11.842;2022-12-07T05:21:52;95274.00;;;5.48;70.57
30682;BME280;17439;48.092;11.842;2022-12-07T05:24:18;95280.44;;;5.47;70.47
30682;BME280;17439;48.092;11.842;2022-12-07T05:26:45;95276.97;;;5.47;70.44
30682;BME280;17439;48.092;11.842;2022-12-07T05:29:14;95274.28;;;5.47;70.29
30682;BME280;17439;48.092;11.842;2022-12-07T05:31:40;95283.41;;;5.45;70.46
30682;BME280;17439;48.092;11.842;2022-12-07T05:34:08;95277.25;;;5.45;70.24
30682;BME280;17439;48.092;11.842;2022-12-07T05:36:35;95281.31;;;5.42;70.23
30682;BME280;17439;48.092;11.842;2022-12-07T05:39:02;95281.59;;;5.41;70.14
30682;BME280;17439;48.092;11.842;2022-12-07T05:41:29;95279.19;;;5.39;70.13
30682;BME280;17439;48.092;11.842;2022-12-07T05:43:55;95279.47;;;5.38;70.14
30682;BME280;17439;48.092;11.842;2022-12-07T05:46:22;95279.22;;;5.34;70.01
30682;BME280;17439;48.092;11.842;2022-12-07T05:48:49;95287.28;;;5.34;70.00
30682;BME280;17439;48.092;11.842;2022-12-07T05:51:16;95272.00;;;5.30;69.83
30682;BME280;17439;48.092;11.842;2022-12-07T05:53:42;95277.66;;;5.28;69.86
30682;BME280;17439;48.092;11.842;2022-12-07T05:56:09;95276.63;;;5.24;70.12
30682;BME280;17439;48.092;11.842;2022-12-07T05:58:35;95275.28;;;5.21;70.14
30682;BME280;17439;48.092;11.842;2022-12-07T06:01:02;95275.56;;;5.20;70.27
30682;BME280;17439;48.092;11.842;2022-12-07T06:03:28;95273.97;;;5.19;70.34
30682;BME280;17439;48.092;11.842;2022-12-07T06:05:55;95283.13;;;5.18;70.20
30682;BME280;17439;48.092;11.842;2022-12-07T06:08:22;95285.28;;;5.16;70.36
30682;BME280;17439;48.092;11.842;2022-12-07T06:10:48;95287.16;;;5.15;70.51
30682;BME280;17439;48.092;11.842;2022-12-07T06:13:15;95288.53;;;5.13;70.55
30682;BME280;17439;48.092;11.842;2022-12-07T06:15:41;95285.84;;;5.13;70.35
30682;BME280;17439;48.092;11.842;2022-12-07T06:18:08;95292.28;;;5.12;70.54
30682;BME280;17439;48.092;11.842;2022-12-07T06:20:35;95293.38;;;5.11;70.43
30682;BME280;17439;48.092;11.842;2022-12-07T06:23:01;95295.25;;;5.10;70.56
30682;BME280;17439;48.092;11.842;2022-12-07T06:25:28;95297.16;;;5.09;70.53
30682;BME280;17439;48.092;11.842;2022-12-07T06:27:54;95296.63;;;5.07;70.40
30682;BME280;17439;48.092;11.842;2022-12-07T06:30:21;95295.81;;;5.07;70.48
30682;BME280;17439;48.092;11.842;2022-12-07T06:32:47;95301.47;;;5.05;70.53
30682;BME280;17439;48.092;11.842;2022-12-07T06:35:14;95302.56;;;5.04;70.60
30682;BME280;17439;48.092;11.842;2022-12-07T06:37:40;95302.03;;;5.02;70.84
30682;BME280;17439;48.092;11.842;2022-12-07T06:40:07;95300.16;;;5.03;70.85
30682;BME280;17439;48.092;11.842;2022-12-07T06:42:34;95296.66;;;5.02;70.94
30682;BME280;17439;48.092;11.842;2022-12-07T06:45:01;95302.03;;;5.02;70.85
30682;BME280;17439;48.092;11.842;2022-12-07T06:47:27;95304.72;;;5.02;71.05
30682;BME280;17439;48.092;11.842;2022-12-07T06:50:07;95305.53;;;5.03;70.90
30682;BME280;17439;48.092;11.842;2022-12-07T06:52:34;95303.63;;;5.03;71.00
30682;BME280;17439;48.092;11.842;2022-12-07T06:55:01;95306.31;;;5.03;70.92
30682;BME280;17439;48.092;11.842;2022-12-07T06:57:27;95314.09;;;5.05;71.18
30682;BME280;17439;48.092;11.842;2022-12-07T06:59:54;95316.00;;;5.04;70.97
30682;BME280;17439;48.092;11.842;2022-12-07T07:02:20;95322.16;;;5.05;71.05
30682;BME280;17439;48.092;11.842;2022-12-07T07:04:47;95321.38;;;5.04;71.18
30682;BME280;17439;48.092;11.842;2022-12-07T07:07:13;95317.59;;;5.05;71.09
30682;BME280;17439;48.092;11.842;2022-12-07T07:09:40;95319.22;;;5.06;71.05
30682;BME280;17439;48.092;11.842;2022-12-07T07:12:06;95320.28;;;5.05;71.01
30682;BME280;17439;48.092;11.842;2022-12-07T07:14:33;95321.91;;;5.06;71.20
30682;BME280;17439;48.092;11.842;2022-12-07T07:17:00;95325.38;;;5.07;71.06
30682;BME280;17439;48.092;11.842;2022-12-07T07:19:26;95327.00;;;5.08;71.09
30682;BME280;17439;48.092;11.842;2022-12-07T07:21:53;95327.78;;;5.08;71.27
30682;BME280;17439;48.092;11.842;2022-12-07T07:24:19;95320.53;;;5.09;70.99
30682;BME280;17439;48.092;11.842;2022-12-07T07:26:46;95319.72;;;5.08;71.12
30682;BME280;17439;48.092;11.842;2022-12-07T07:29:12;95315.97;;;5.09;71.19
30682;BME280;17439;48.092;11.842;2022-12-07T07:31:39;95322.94;;;5.11;70.99
30682;BME280;17439;48.092;11.842;2022-12-07T07:34:06;95324.81;;;5.10;71.22
30682;BME280;17439;48.092;11.842;2022-12-07T07:36:32;95331.00;;;5.11;71.11
30682;BME280;17439;48.092;11.842;2022-12-07T07:38:59;95335.56;;;5.10;71.15
30682;BME280;17439;48.092;11.842;2022-12-07T07:41:25;95337.97;;;5.12;71.22
30682;BME280;17439;48.092;11.842;2022-12-07T07:43:52;95331.53;;;5.13;71.22
30682;BME280;17439;48.092;11.842;2022-12-07T07:46:18;95329.63;;;5.13;71.31
30682;BME280;17439;48.092;11.842;2022-12-07T07:48:45;95329.63;;;5.13;70.99
30682;BME280;17439;48.092;11.842;2022-12-07T07:51:12;95338.50;;;5.14;71.14
30682;BME280;17439;48.092;11.842;2022-12-07T07:53:38;95339.31;;;5.14;71.15
30682;BME280;17439;48.092;11.842;2022-12-07T07:56:05;95336.06;;;5.17;71.23
30682;BME280;17439;48.092;11.842;2022-12-07T07:58:31;95333.38;;;5.17;71.38
30682;BME280;17439;48.092;11.842;2022-12-07T08:01:04;95334.97;;;5.18;70.36
30682;BME280;17439;48.092;11.842;2022-12-07T08:03:31;95340.91;;;5.20;71.31
30682;BME280;17439;48.092;11.842;2022-12-07T08:05:57;95341.69;;;5.21;71.33
30682;BME280;17439;48.092;11.842;2022-12-07T08:08:24;95343.31;;;5.22;71.21
30682;BME280;17439;48.092;11.842;2022-12-07T08:10:51;95348.69;;;5.22;71.16
30682;BME280;17439;48.092;11.842;2022-12-07T08:13:17;95340.34;;;5.23;71.19
30682;BME280;17439;48.092;11.842;2022-12-07T08:15:46;95343.53;;;5.25;70.98
30682;BME280;17439;48.092;11.842;2022-12-07T08:18:15;95342.75;;;5.25;71.00
30682;BME280;17439;48.092;11.842;2022-12-07T08:20:42;95343.25;;;5.27;71.02
30682;BME280;17439;48.092;11.842;2022-12-07T08:23:09;95346.22;;;5.25;70.94
30682;BME280;17439;48.092;11.842;2022-12-07T08:25:36;95348.91;;;5.25;70.60
30682;BME280;17439;48.092;11.842;2022-12-07T08:28:04;95352.94;;;5.23;70.74
30682;BME280;17439;48.092;11.842;2022-12-07T08:30:30;95346.78;;;5.22;70.85
30682;BME280;17439;48.092;11.842;2022-12-07T08:32:57;95343.81;;;5.24;71.14
30682;BME280;17439;48.092;11.842;2022-12-07T08:35:24;95342.75;;;5.20;70.49
30682;BME280;17439;48.092;11.842;2022-12-07T08:37:51;95349.75;;;5.21;70.48
30682;BME280;17439;48.092;11.842;2022-12-07T08:40:17;95348.13;;;5.20;70.73
30682;BME280;17439;48.092;11.842;2022-12-07T08:42:50;95353.50;;;5.20;69.12
30682;BME280;17439;48.092;11.842;2022-12-07T08:45:17;95353.22;;;5.21;70.88
30682;BME280;17439;48.092;11.842;2022-12-07T08:48:12;95349.50;;;5.17;68.66
30682;BME280;17439;48.092;11.842;2022-12-07T08:50:39;95347.09;;;5.16;69.38
30682;BME280;17439;48.092;11.842;2022-12-07T08:53:14;95337.94;;;5.22;70.76
30682;BME280;17439;48.092;11.842;2022-12-07T08:55:41;95343.81;;;5.24;70.97
30682;BME280;17439;48.092;11.842;2022-12-07T08:58:08;95346.50;;;5.24;70.81
30682;BME280;17439;48.092;11.842;2022-12-07T09:00:34;95338.97;;;5.26;70.89
30682;BME280;17439;48.092;11.842;2022-12-07T09:03:01;95351.31;;;5.27;70.98
30682;BME280;17439;48.092;11.842;2022-12-07T09:05:27;95345.41;;;5.30;71.04
30682;BME280;17439;48.092;11.842;2022-12-07T09:07:57;95348.59;;;5.32;70.27
30682;BME280;17439;48.092;11.842;2022-12-07T09:10:26;95357.72;;;5.36;71.14
30682;BME280;17439;48.092;11.842;2022-12-07T09:12:52;95352.31;;;5.41;71.16
30682;BME280;17439;48.092;11.842;2022-12-07T09:15:19;95349.84;;;5.45;71.12
30682;BME280;17439;48.092;11.842;2022-12-07T09:17:45;95343.91;;;5.48;71.22
30682;BME280;17439;48.092;11.842;2022-12-07T09:20:12;95346.84;;;5.52;71.31
30682;BME280;17439;48.092;11.842;2022-12-07T09:22:39;95346.28;;;5.55;71.02
30682;BME280;17439;48.092;11.842;2022-12-07T09:25:05;95344.63;;;5.59;71.00
30682;BME280;17439;48.092;11.842;2022-12-07T09:27:32;95342.19;;;5.62;70.83
30682;BME280;17439;48.092;11.842;2022-12-07T09:29:58;95347.28;;;5.64;70.89
30682;BME280;17439;48.092;11.842;2022-12-07T09:32:25;95344.03;;;5.67;71.00
30682;BME280;17439;48.092;11.842;2022-12-07T09:34:52;95338.09;;;5.70;70.58
30682;BME280;17439;48.092;11.842;2022-12-07T09:37:19;95345.31;;;5.75;70.92
30682;BME280;17439;48.092;11.842;2022-12-07T09:39:45;95333.19;;;5.77;70.58
30682;BME280;17439;48.092;11.842;2022-12-07T09:42:38;95337.97;;;5.80;68.50
30682;BME280;17439;48.092;11.842;2022-12-07T09:45:12;95338.25;;;5.84;69.20
30682;BME280;17439;48.092;11.842;2022-12-07T09:47:40;95331.19;;;5.88;70.41
30682;BME280;17439;48.092;11.842;2022-12-07T09:50:15;95332.53;;;5.91;68.14
30682;BME280;17439;48.092;11.842;2022-12-07T09:52:44;95329.78;;;5.96;70.04
30682;BME280;17439;48.092;11.842;2022-12-07T09:55:14;95329.78;;;5.96;69.40
30682;BME280;17439;48.092;11.842;2022-12-07T09:57:42;95331.66;;;6.01;69.79
30682;BME280;17439;48.092;11.842;2022-12-07T10:00:15;95324.41;;;5.96;66.68
30682;BME280;17439;48.092;11.842;2022-12-07T10:03:05;95328.66;;;6.02;69.49
30682;BME280;17439;48.092;11.842;2022-12-07T10:05:35;95324.34;;;6.06;68.63
30682;BME280;17439;48.092;11.842;2022-12-07T10:08:04;95314.88;;;6.09;69.56
30682;BME280;17439;48.092;11.842;2022-12-07T10:10:33;95317.78;;;6.12;69.32
30682;BME280;17439;48.092;11.842;2022-12-07T10:13:15;95316.44;;;6.15;66.84
30682;BME280;17439;48.092;11.842;2022-12-07T10:15:51;95315.06;;;6.17;68.75
30682;BME280;17439;48.092;11.842;2022-12-07T10:18:47;95305.88;;;6.18;66.21
30682;BME280;17439;48.092;11.842;2022-12-07T10:21:15;95312.09;;;6.19;68.65
30682;BME280;17439;48.092;11.842;2022-12-07T10:24:05;95316.09;;;6.22;65.58
30682;BME280;17439;48.092;11.842;2022-12-07T10:26:55;95306.34;;;6.26;69.04
30682;BME280;17439;48.092;11.842;2022-12-07T10:29:38;95307.97;;;6.27;65.14
30682;BME280;17439;48.092;11.842;2022-12-07T10:32:32;95310.59;;;6.32;66.27
30682;BME280;17439;48.092;11.842;2022-12-07T10:35:29;95311.09;;;6.34;66.73
30682;BME280;17439;48.092;11.842;2022-12-07T10:37:59;95313.50;;;6.35;67.22
30682;BME280;17439;48.092;11.842;2022-12-07T10:40:33;95305.66;;;6.39;69.06
30682;BME280;17439;48.092;11.842;2022-12-07T10:43:02;95308.88;;;6.41;68.67
30682;BME280;17439;48.092;11.842;2022-12-07T10:45:29;95306.69;;;6.43;68.79
30682;BME280;17439;48.092;11.842;2022-12-07T11:00:18;95294.34;;;6.61;66.55
30682;BME280;17439;48.092;11.842;2022-12-07T11:05:19;95295.47;;;6.60;63.96
30682;BME280;17439;48.092;11.842;2022-12-07T11:13:59;95273.81;;;6.46;63.93
30682;BME280;17439;48.092;11.842;2022-12-07T11:17:05;95272.75;;;6.42;64.69
30682;BME280;17439;48.092;11.842;2022-12-07T11:19:49;95267.75;;;6.35;66.50
30682;BME280;17439;48.092;11.842;2022-12-07T11:27:47;95272.28;;;6.16;64.53
30682;BME280;17439;48.092;11.842;2022-12-07T11:30:16;95262.09;;;6.13;66.93
30682;BME280;17439;48.092;11.842;2022-12-07T11:32:53;95264.56;;;6.09;66.08
30682;BME280;17439;48.092;11.842;2022-12-07T11:35:44;95266.50;;;6.04;64.90
30682;BME280;17439;48.092;11.842;2022-12-07T11:38:16;95258.41;;;6.04;66.29
30682;BME280;17439;48.092;11.842;2022-12-07T11:40:49;95263.28;;;6.02;66.50
30682;BME280;17439;48.092;11.842;2022-12-07T11:43:46;95263.00;;;6.03;65.17
30682;BME280;17439;48.092;11.842;2022-12-07T11:46:15;95257.34;;;6.05;67.34
30682;BME280;17439;48.092;11.842;2022-12-07T11:49:02;95265.13;;;6.06;64.93
30682;BME280;17439;48.092;11.842;2022-12-07T11:51:33;95257.28;;;6.10;66.10
30682;BME280;17439;48.092;11.842;2022-12-07T11:54:09;95258.81;;;6.16;67.17
30682;BME280;17439;48.092;11.842;2022-12-07T11:56:38;95244.50;;;6.21;67.90
30682;BME280;17439;48.092;11.842;2022-12-07T11:59:17;95251.47;;;6.22;65.52
30682;BME280;17439;48.092;11.842;2022-12-07T12:01:48;95247.19;;;6.21;67.28
30682;BME280;17439;48.092;11.842;2022-12-07T12:04:39;95238.88;;;6.17;63.08
30682;BME280;17439;48.092;11.842;2022-12-07T12:07:15;95231.91;;;6.16;65.74
30682;BME280;17439;48.092;11.842;2022-12-07T12:10:13;95230.28;;;6.15;65.63
30682;BME280;17439;48.092;11.842;2022-12-07T12:16:18;95221.53;;;6.04;64.20
30682;BME280;17439;48.092;11.842;2022-12-07T12:18:58;95231.78;;;6.02;65.47
30682;BME280;17439;48.092;11.842;2022-12-07T12:21:30;95218.13;;;5.98;66.62
30682;BME280;17439;48.092;11.842;2022-12-07T12:23:59;95216.22;;;5.99;66.93
30682;BME280;17439;48.092;11.842;2022-12-07T12:26:29;95209.50;;;5.96;65.88
30682;BME280;17439;48.092;11.842;2022-12-07T12:28:59;95212.19;;;5.96;66.54
30682;BME280;17439;48.092;11.842;2022-12-07T12:33:55;95209.22;;;5.98;66.84
30682;BME280;17439;48.092;11.842;2022-12-07T12:44:03;95215.16;;;5.95;66.68
30682;BME280;17439;48.092;11.842;2022-12-07T12:59:29;95209.25;;;5.93;64.93
30682;BME280;17439;48.092;11.842;2022-12-07T13:10:25;95192.91;;;5.89;65.26
30682;BME280;17439;48.092;11.842;2022-12-07T13:15:38;95193.41;;;5.91;64.73
30682;BME280;17439;48.092;11.842;2022-12-07T13:20:48;95190.94;;;5.95;65.29
30682;BME280;17439;48.092;11.842;2022-12-07T13:23:18;95194.97;;;5.97;66.21
30682;BME280;17439;48.092;11.842;2022-12-07T13:25:51;95182.84;;;6.00;66.06
30682;BME280;17439;48.092;11.842;2022-12-07T13:28:21;95184.97;;;6.03;67.22
30682;BME280;17439;48.092;11.842;2022-12-07T13:31:03;95194.13;;;6.02;64.93
30682;BME280;17439;48.092;11.842;2022-12-07T13:33:34;95180.38;;;6.04;66.07
30682;BME280;17439;48.092;11.842;2022-12-07T13:36:01;95188.38;;;6.09;66.88
30682;BME280;17439;48.092;11.842;2022-12-07T13:38:35;95189.78;;;6.06;65.56
30682;BME280;17439;48.092;11.842;2022-12-07T13:41:05;95191.66;;;6.06;66.25
30682;BME280;17439;48.092;11.842;2022-12-07T13:43:42;95190.56;;;6.07;65.28
30682;BME280;17439;48.092;11.842;2022-12-07T13:46:10;95184.38;;;6.06;66.58
30682;BME280;17439;48.092;11.842;2022-12-07T13:48:44;95180.09;;;6.05;65.62
30682;BME280;17439;48.092;11.842;2022-12-07T13:51:20;95177.97;;;6.02;65.55
30682;BME280;17439;48.092;11.842;2022-12-07T13:53:52;95179.59;;;6.03;66.95
30682;BME280;17439;48.092;11.842;2022-12-07T13:56:22;95181.75;;;6.01;66.57
30682;BME280;17439;48.092;11.842;2022-12-07T13:58:48;95179.03;;;6.01;67.03
30682;BME280;17439;48.092;11.842;2022-12-07T14:01:15;95175.28;;;6.02;67.17
30682;BME280;17439;48.092;11.842;2022-12-07T14:03:42;95178.75;;;6.03;67.20
30682;BME280;17439;48.092;11.842;2022-12-07T14:06:22;95177.97;;;6.02;65.12
30682;BME280;17439;48.092;11.842;2022-12-07T14:08:49;95180.38;;;6.04;67.20
30682;BME280;17439;48.092;11.842;2022-12-07T14:11:28;95183.84;;;6.04;65.96
30682;BME280;17439;48.092;11.842;2022-12-07T14:13:58;95180.59;;;6.07;67.19
30682;BME280;17439;48.092;11.842;2022-12-07T14:16:32;95175.22;;;6.07;66.52
30682;BME280;17439;48.092;11.842;2022-12-07T14:19:03;95179.78;;;6.07;66.68
30682;BME280;17439;48.092;11.842;2022-12-07T14:21:32;95176.03;;;6.08;67.13
30682;BME280;17439;48.092;11.842;2022-12-07T14:24:16;95179.78;;;6.07;65.39
30682;BME280;17439;48.092;11.842;2022-12-07T14:26:45;95170.66;;;6.08;66.96
30682;BME280;17439;48.092;11.842;2022-12-07T14:31:52;95169.03;;;6.07;67.28
30682;BME280;17439;48.092;11.842;2022-12-07T14:34:23;95171.22;;;6.05;66.16
30682;BME280;17439;48.092;11.842;2022-12-07T14:36:49;95175.78;;;6.04;67.48
30682;BME280;17439;48.092;11.842;2022-12-07T14:39:16;95180.38;;;6.04;67.21
30682;BME280;17439;48.092;11.842;2022-12-07T14:41:43;95162.63;;;6.03;67.23
30682;BME280;17439;48.092;11.842;2022-12-07T14:44:13;95174.19;;;6.03;66.53
30682;BME280;17439;48.092;11.842;2022-12-07T14:46:52;95181.16;;;6.04;67.36
30682;BME280;17439;48.092;11.842;2022-12-07T14:49:38;95176.88;;;6.03;67.38
30682;BME280;17439;48.092;11.842;2022-12-07T14:52:13;95170.97;;;6.01;66.17